Estación Meteorológica Peña el Pijo (Robertgarden) [ 01/30/23 14:01:41 CET ]

Fecha Hora Presion(HPa) Temp (°C) Humedad % Rocio (°C) Viento ( m/s) Direccion Lluvia 1Hora(mm) Lluvia 24H(mm) LLuvia Total(mm)
2010-Oct-11 01:01:14 995.800 6.9 92 5.7         167.83
2010-Oct-11 02:01:17 995.600 7.2 92 6.0         167.83
2010-Oct-11 03:05:10 995.200 6.8 93 5.8         167.83
2010-Oct-11 04:01:12 994.700 6.3 93 5.2         167.83
2010-Oct-11 05:01:12 994.200 6.1 93 5.0         167.83
2010-Oct-11 06:01:13 994.200 5.5 93 4.5         167.83
2010-Oct-11 07:01:14 994.000 4.9 93 3.9         167.83
2010-Oct-11 08:01:14 994.200 4.3 93 3.2         167.83
2010-Oct-11 09:01:18 994.500 4.4 94 3.5         167.83
2010-Oct-11 10:01:14 994.400 8.6 94 7.7         167.83
2010-Oct-11 11:01:14 994.600 12.8 81 9.6         167.83
2010-Oct-11 12:01:14 994.800 14.9 60 7.2         167.83
2010-Oct-11 13:01:14 994.700 19.3 47 7.7         167.83
2010-Oct-11 14:01:16 994.400 16.1 49 5.4         167.83
2010-Oct-11 15:01:13 994.000 18.4 46 6.5         167.83
2010-Oct-11 16:01:13 993.900 17.3 44 4.8         167.83
2010-Oct-11 17:01:12 993.900 17.1 45 5.0         167.83
2010-Oct-11 18:01:17 994.400 15.0 54 5.7         167.83
2010-Oct-11 19:01:14 995.100 13.4 61 6.0         167.83
2010-Oct-11 20:01:13 996.100 12.1 64 5.5         167.83
2010-Oct-11 21:01:14 996.900 11.6 67 5.7         167.83
2010-Oct-11 22:01:17 997.500 10.9 75 6.7         167.83
2010-Oct-11 23:01:11 997.900 10.9 77 7.0         167.83

Temperatura Máxima:19°    Temperatura Mínima:
Presión Máxima:997.900 Hpa    Presión Mínima:993.900 Hpa


Volver